map of PDS home
PDS - Airport
Location
City:  Piedras Negras, Coahuila, México
Name:Piedras Negras International Airport
ICAO:MMPG
IATA:PDS

Details
Type:Airport (Aerodrome, Airfield)
Use:International (customs port of entry)
Latitude:28°37'39"N (28.627394)
Longitude:100°32'07"W (-100.535210)
Datum:WGS 1984
Elevation:901 ft (275 m)
Variation:5.19°E (WMM2015 magnetic declination)
-0.11° annual change
Runways:1
Longest:6655 × 98 ft (2028 × 30 m), paved

Time
Time Zone:UTC-6 (DST-5)
Local Time:

Weather
METAR:MMPG 161340Z 00000KT 10SM FEW060 02/M02 A3030 RMK 8/500
TAF:MMPG 160513Z 1606/1706 00000KT 6SM HZ SCT200
FM161800 13010KT P6SM BKN200
FM170300 13005KT 6SM HZ BKN200

Related Locations
Nearby:
Farthest:RRG: 11259 mi / 18119 km
Plaine Corail [Sir Gaëtan Duval Airport (Plaine Corail Airport)], Rodrigues Island, MU

Find:

   beyond  
but within

Other Information
Maps:
NOTAMs:
Links:
Sources:

  
  • flag of México
  • flag of Coahuila
  

Sectional Chart

Flight Planning
at skyvector.com

Satellite Image

Google Maps Satellite view

 

Copyright © 2004-2018 Karl L. Swartz. All rights reserved.
The Great Circle Mapper name and logo are trademarks of the Great Circle Mapper.
All other trademarks mentioned herein belong to their respective owners.
Please see credits for attibutions and further copyright information.

  Follow gcmap on Facebook Follow gcmap on Twitter Follow gcmap on Google+ GCmap on LinkedIn

hCard Microformat

Geo Microformat